Time;durP1;ratioP1;P1;durP2;ratioP2;P2;SDS_P1;SDS_P2;PMS_P1;PMS_P2;Temp;Humidity;BMP_temperature;BMP_pressure;BME280_temperature;BME280_humidity;BME280_pressure;Samples;Min_cycle;Max_cycle;Signal;HPM_P1;HPM_P2
2022/11/26 00:00:48;;;;;;;58.90;19.27;;;9.20;62.00;;;;;;5080153;27;20466;-88
2022/11/26 00:03:15;;;;;;;25.97;16.93;;;9.20;63.10;;;;;;5106503;27;20463;-88
2022/11/26 00:05:45;;;;;;;73.93;18.60;;;9.30;62.40;;;;;;5109383;27;20538;-87
2022/11/26 00:08:19;;;;;;;150.83;23.53;;;9.40;61.80;;;;;;5074089;27;20481;-87
2022/11/26 00:10:49;;;;;;;81.27;21.20;;;9.40;61.30;;;;;;5075652;27;20551;-87
2022/11/26 00:13:17;;;;;;;50.27;18.30;;;9.20;62.00;;;;;;5107865;27;20451;-88
2022/11/26 00:15:44;;;;;;;45.80;16.07;;;9.30;62.20;;;;;;5120023;27;20482;-89
2022/11/26 00:18:13;;;;;;;33.63;15.53;;;9.40;61.90;;;;;;5098374;27;20462;-86
2022/11/26 00:20:41;;;;;;;23.23;17.20;;;9.10;62.10;;;;;;5089465;27;20804;-88
2022/11/26 00:23:17;;;;;;;33.10;17.07;;;8.80;63.70;;;;;;5081992;27;21220;-88
2022/11/26 00:25:47;;;;;;;23.70;14.20;;;9.00;63.10;;;;;;5101278;27;20485;-89
2022/11/26 00:28:26;;;;;;;26.20;17.60;;;9.10;62.80;;;;;;5084869;28;20529;-89
2022/11/26 00:30:54;;;;;;;35.97;19.10;;;9.10;62.30;;;;;;5119555;27;20446;-88
2022/11/26 00:33:23;;;;;;;33.80;19.00;;;9.10;62.30;;;;;;5084488;27;21052;-87
2022/11/26 00:35:54;;;;;;;26.27;17.30;;;9.00;64.10;;;;;;5089172;27;20520;-89
2022/11/26 00:38:22;;;;;;;34.57;16.83;;;9.00;64.30;;;;;;5088411;27;20499;-87
2022/11/26 00:40:49;;;;;;;31.20;18.63;;;8.70;66.00;;;;;;5099152;27;20442;-88
2022/11/26 00:43:17;;;;;;;33.53;16.70;;;8.90;66.00;;;;;;5106393;28;20883;-88
2022/11/26 00:45:46;;;;;;;35.53;17.57;;;9.00;64.70;;;;;;5097444;27;20449;-86
2022/11/26 00:48:14;;;;;;;30.60;17.70;;;8.90;65.10;;;;;;5105866;27;20462;-90
2022/11/26 00:50:49;;;;;;;29.83;17.60;;;9.10;64.80;;;;;;5095962;27;20474;-90
2022/11/26 00:53:18;;;;;;;26.10;16.50;;;9.20;64.20;;;;;;5099347;27;20541;-87
2022/11/26 00:55:48;;;;;;;28.60;16.33;;;9.40;63.20;;;;;;5086792;27;21174;-88
2022/11/26 00:58:23;;;;;;;28.90;17.47;;;9.50;62.30;;;;;;5097853;27;20442;-86
2022/11/26 01:00:51;;;;;;;45.23;15.93;;;9.50;62.20;;;;;;5107244;27;20499;-87
2022/11/26 01:03:19;;;;;;;24.20;15.40;;;9.40;62.20;;;;;;5101787;27;20478;-86
2022/11/26 01:05:50;;;;;;;213.53;28.17;;;9.40;62.60;;;;;;5080407;27;20536;-87
2022/11/26 01:08:26;;;;;;;152.43;22.53;;;9.40;62.10;;;;;;5116934;27;20462;-87
2022/11/26 01:10:53;;;;;;;32.53;15.93;;;9.30;62.90;;;;;;5090618;27;20502;-86
2022/11/26 01:13:20;;;;;;;53.73;15.27;;;9.30;63.10;;;;;;5115087;27;20483;-87
2022/11/26 01:15:48;;;;;;;22.73;14.70;;;9.30;63.10;;;;;;5085695;27;20472;-87
2022/11/26 01:18:18;;;;;;;41.37;12.77;;;9.40;62.70;;;;;;5080964;27;20475;-87
2022/11/26 01:20:48;;;;;;;52.30;14.80;;;9.50;62.10;;;;;;5090282;27;20453;-90
2022/11/26 01:23:17;;;;;;;154.53;20.20;;;9.40;61.70;;;;;;5101916;28;21010;-87
2022/11/26 01:25:45;;;;;;;121.53;21.97;;;9.30;62.10;;;;;;5119082;27;20515;-87
2022/11/26 01:28:14;;;;;;;67.47;18.70;;;9.10;63.00;;;;;;5086343;27;20496;-87
2022/11/26 01:30:41;;;;;;;20.43;13.80;;;9.00;63.20;;;;;;5082253;27;20459;-89
2022/11/26 01:33:08;;;;;;;25.10;13.90;;;9.00;62.70;;;;;;5100965;27;20886;-87
2022/11/26 01:35:36;;;;;;;20.27;13.37;;;9.10;62.80;;;;;;5097273;27;20498;-89
2022/11/26 01:38:05;;;;;;;20.03;13.00;;;9.00;63.30;;;;;;5116996;27;20454;-88
2022/11/26 01:40:58;;;;;;;19.87;13.30;;;8.70;63.90;;;;;;5077754;28;20455;-87
2022/11/26 01:43:27;;;;;;;22.77;13.80;;;8.40;65.50;;;;;;5100744;27;20435;-91
2022/11/26 01:45:55;;;;;;;17.23;12.10;;;8.30;65.60;;;;;;5104728;27;21964;-87
2022/11/26 01:48:29;;;;;;;18.40;12.60;;;8.30;65.70;;;;;;5095673;27;20466;-87
2022/11/26 01:51:02;;;;;;;15.33;11.30;;;8.40;65.00;;;;;;5082517;27;20477;-87
2022/11/26 01:53:43;;;;;;;20.37;12.30;;;8.40;64.90;;;;;;5116500;27;20446;-87
2022/11/26 01:56:21;;;;;;;14.90;10.00;;;8.60;64.50;;;;;;5098286;27;20480;-87
2022/11/26 01:58:53;;;;;;;15.13;10.80;;;8.70;63.90;;;;;;5117000;27;21037;-88
2022/11/26 02:01:21;;;;;;;16.03;11.40;;;8.80;64.30;;;;;;5082341;27;20591;-87
2022/11/26 02:03:58;;;;;;;19.83;13.20;;;8.60;64.90;;;;;;5113746;27;20442;-87
2022/11/26 02:06:31;;;;;;;20.70;12.57;;;8.70;64.70;;;;;;5084751;27;20507;-88
2022/11/26 02:09:02;;;;;;;20.03;12.37;;;8.80;64.90;;;;;;5102851;27;20462;-88
2022/11/26 02:11:29;;;;;;;16.27;11.20;;;9.00;64.20;;;;;;5092967;28;20438;-88
2022/11/26 02:14:00;;;;;;;20.50;13.90;;;9.10;64.30;;;;;;5088439;27;20457;-87
2022/11/26 02:16:39;;;;;;;19.70;12.33;;;9.00;63.60;;;;;;5083386;28;20484;-87
2022/11/26 02:19:34;;;;;;;16.70;11.60;;;9.10;63.80;;;;;;5100488;28;20473;-88
2022/11/26 02:22:08;;;;;;;16.73;11.00;;;9.20;63.00;;;;;;5106812;27;20454;-88
2022/11/26 02:24:48;;;;;;;25.50;13.97;;;9.30;62.70;;;;;;5072551;27;20446;-87
2022/11/26 02:27:46;;;;;;;20.00;12.50;;;9.20;61.90;;;;;;5089571;28;20874;-87
2022/11/26 02:30:16;;;;;;;15.07;10.17;;;9.00;62.90;;;;;;5100866;28;20494;-86
2022/11/26 02:32:58;;;;;;;16.97;9.40;;;9.10;62.30;;;;;;5067593;27;20458;-87
2022/11/26 02:35:34;;;;;;;14.80;8.97;;;8.80;62.80;;;;;;5084715;28;20937;-89
2022/11/26 02:38:05;;;;;;;13.30;9.43;;;8.90;62.60;;;;;;5098977;27;20469;-87
2022/11/26 02:40:32;;;;;;;20.50;11.93;;;9.00;63.00;;;;;;5120139;27;20506;-87
2022/11/26 02:42:59;;;;;;;19.70;12.20;;;9.10;63.20;;;;;;5104642;27;20454;-87
2022/11/26 02:45:31;;;;;;;14.40;10.83;;;8.90;63.80;;;;;;5086952;28;20453;-89
2022/11/26 02:48:02;;;;;;;16.10;10.20;;;9.00;63.20;;;;;;5084311;27;20540;-87
2022/11/26 02:50:33;;;;;;;11.90;9.20;;;9.10;62.50;;;;;;5098775;28;20446;-89
2022/11/26 02:53:02;;;;;;;17.63;9.93;;;9.00;63.10;;;;;;5098801;27;20451;-87
2022/11/26 02:55:32;;;;;;;14.90;9.60;;;8.80;64.60;;;;;;5084212;28;20569;-86
2022/11/26 02:58:00;;;;;;;17.13;11.63;;;8.90;64.70;;;;;;5082438;27;20915;-87
2022/11/26 03:00:28;;;;;;;18.60;11.33;;;8.60;66.50;;;;;;5097067;28;20465;-90
2022/11/26 03:03:01;;;;;;;16.20;10.80;;;8.80;66.90;;;;;;5117303;27;20462;-87
2022/11/26 03:05:33;;;;;;;19.53;11.40;;;8.90;65.80;;;;;;5090312;28;20434;-86
2022/11/26 03:08:02;;;;;;;21.13;11.80;;;9.00;65.40;;;;;;5087836;27;20442;-88
2022/11/26 03:10:31;;;;;;;17.90;11.50;;;8.90;65.40;;;;;;5099503;28;20446;-87
2022/11/26 03:12:59;;;;;;;14.00;9.30;;;9.10;65.40;;;;;;5090239;27;20511;-89
2022/11/26 03:15:27;;;;;;;17.10;8.77;;;8.90;65.90;;;;;;5094763;28;20525;-87
2022/11/26 03:17:54;;;;;;;15.80;9.23;;;8.90;66.60;;;;;;5100774;27;22147;-86
2022/11/26 03:20:21;;;;;;;30.57;16.00;;;8.90;67.60;;;;;;5084151;28;20474;-87
2022/11/26 03:22:48;;;;;;;24.70;15.30;;;8.90;66.40;;;;;;5090173;27;20454;-89
2022/11/26 03:25:16;;;;;;;28.03;13.20;;;9.00;65.90;;;;;;5117421;27;20451;-87
2022/11/26 03:27:43;;;;;;;21.87;13.03;;;9.10;65.10;;;;;;5100646;27;20455;-88
2022/11/26 03:30:11;;;;;;;44.50;15.27;;;9.20;64.20;;;;;;5081742;28;20565;-88
2022/11/26 03:32:39;;;;;;;19.27;11.40;;;9.00;64.60;;;;;;5117789;27;20456;-87
2022/11/26 03:35:07;;;;;;;19.53;11.33;;;9.10;64.60;;;;;;5101890;27;21132;-87
2022/11/26 03:37:35;;;;;;;14.97;9.40;;;9.00;66.00;;;;;;5092712;28;20557;-87
2022/11/26 03:40:02;;;;;;;18.50;8.10;;;8.80;66.40;;;;;;5086864;27;21182;-87
2022/11/26 03:42:29;;;;;;;10.33;7.27;;;8.90;66.30;;;;;;5073091;27;21319;-86
2022/11/26 03:44:56;;;;;;;18.03;11.70;;;9.10;66.90;;;;;;5079707;27;20492;-87
2022/11/26 03:47:23;;;;;;;91.23;18.17;;;9.10;66.30;;;;;;5089176;27;21087;-88
2022/11/26 03:49:52;;;;;;;21.23;13.50;;;9.00;65.90;;;;;;5120222;27;20561;-87
2022/11/26 03:52:19;;;;;;;33.33;15.50;;;8.70;66.30;;;;;;5076110;27;20478;-86
2022/11/26 03:54:46;;;;;;;31.03;13.77;;;8.50;66.70;;;;;;5075301;27;20484;-89
2022/11/26 03:57:13;;;;;;;288.53;29.97;;;8.30;67.20;;;;;;5102162;27;20556;-87
2022/11/26 03:59:40;;;;;;;26.40;14.83;;;8.50;67.60;;;;;;5105886;27;20498;-88
2022/11/26 04:02:08;;;;;;;98.33;19.00;;;8.60;66.20;;;;;;5100825;28;20817;-86
2022/11/26 04:04:35;;;;;;;24.10;14.10;;;8.70;66.20;;;;;;5099920;27;20443;-86
2022/11/26 04:07:04;;;;;;;99.17;19.53;;;8.70;66.40;;;;;;5106070;27;20482;-87
2022/11/26 04:09:31;;;;;;;127.87;20.40;;;8.70;64.80;;;;;;5103794;27;21225;-90
2022/11/26 04:11:58;;;;;;;31.33;16.20;;;8.30;66.30;;;;;;5109843;27;20454;-87
2022/11/26 04:14:25;;;;;;;23.00;15.47;;;8.20;67.60;;;;;;5091232;27;20479;-88
2022/11/26 04:16:52;;;;;;;24.40;15.50;;;8.50;66.90;;;;;;5077775;27;21180;-87
2022/11/26 04:19:19;;;;;;;24.17;15.97;;;8.70;66.50;;;;;;5099611;27;20466;-89
2022/11/26 04:21:46;;;;;;;21.00;14.23;;;8.90;65.90;;;;;;5076487;27;20605;-87
2022/11/26 04:24:15;;;;;;;21.77;11.40;;;9.00;66.00;;;;;;5110429;27;21328;-88
2022/11/26 04:26:42;;;;;;;14.50;10.30;;;9.20;65.20;;;;;;5107689;27;20443;-88
2022/11/26 04:29:09;;;;;;;18.73;11.37;;;9.10;66.00;;;;;;5099312;27;20468;-88
2022/11/26 04:31:36;;;;;;;17.80;11.20;;;9.10;66.90;;;;;;5099445;27;20441;-88
2022/11/26 04:34:03;;;;;;;18.13;7.73;;;9.20;65.80;;;;;;5087907;27;20469;-89
2022/11/26 04:36:30;;;;;;;10.00;5.13;;;9.20;65.70;;;;;;5087303;28;20450;-88
2022/11/26 04:38:58;;;;;;;13.23;9.63;;;9.30;66.10;;;;;;5085999;27;20493;-91
2022/11/26 04:41:26;;;;;;;17.67;11.50;;;9.50;67.40;;;;;;5070489;28;20446;-87
2022/11/26 04:43:54;;;;;;;16.10;12.57;;;9.30;65.80;;;;;;5085796;27;20446;-90
2022/11/26 04:46:21;;;;;;;21.20;11.90;;;9.30;66.30;;;;;;5068341;27;20438;-87
2022/11/26 04:48:48;;;;;;;20.53;13.47;;;9.30;66.00;;;;;;5099608;27;20536;-88
2022/11/26 04:51:15;;;;;;;17.37;10.67;;;9.50;65.10;;;;;;5082978;27;20466;-89
2022/11/26 04:53:42;;;;;;;13.43;9.27;;;9.60;64.90;;;;;;5096904;27;20527;-87
2022/11/26 04:56:09;;;;;;;14.47;9.90;;;9.70;64.60;;;;;;5117266;27;20498;-88
2022/11/26 04:58:38;;;;;;;14.67;9.17;;;9.70;65.20;;;;;;5100776;27;20523;-87
2022/11/26 05:01:05;;;;;;;17.53;11.07;;;9.70;64.90;;;;;;5118719;27;20491;-88
2022/11/26 05:03:32;;;;;;;14.97;11.10;;;9.60;64.30;;;;;;5092892;27;20454;-87
2022/11/26 05:05:59;;;;;;;15.23;11.00;;;9.20;65.50;;;;;;5099462;27;20521;-87
2022/11/26 05:08:26;;;;;;;17.93;11.43;;;9.20;65.80;;;;;;5091597;27;20523;-88
2022/11/26 05:10:54;;;;;;;19.50;10.20;;;9.50;65.00;;;;;;5081200;27;20451;-83
2022/11/26 05:13:22;;;;;;;13.27;10.53;;;9.60;64.00;;;;;;5085799;28;20447;-87
2022/11/26 05:15:50;;;;;;;10.90;7.50;;;9.40;63.50;;;;;;5082412;27;20478;-87
2022/11/26 05:18:17;;;;;;;16.93;8.47;;;9.30;64.70;;;;;;5081526;28;20516;-87
2022/11/26 05:20:45;;;;;;;11.17;7.43;;;9.40;64.30;;;;;;5119557;27;20478;-89
2022/11/26 05:23:12;;;;;;;11.47;8.37;;;9.50;63.60;;;;;;5070142;27;20535;-88
2022/11/26 05:25:39;;;;;;;12.30;7.17;;;9.60;62.90;;;;;;5099146;27;20918;-87
2022/11/26 05:28:06;;;;;;;11.13;6.33;;;9.70;62.40;;;;;;5082331;27;21089;-85
2022/11/26 05:30:33;;;;;;;11.17;7.40;;;9.70;61.90;;;;;;5081635;28;20542;-88
2022/11/26 05:33:02;;;;;;;11.03;6.77;;;9.40;62.70;;;;;;5089394;27;20469;-86
2022/11/26 05:35:29;;;;;;;8.10;5.33;;;9.40;62.90;;;;;;5117267;27;20447;-91
2022/11/26 05:37:56;;;;;;;8.07;5.17;;;9.50;62.00;;;;;;5092237;27;20518;-87
2022/11/26 05:40:23;;;;;;;12.00;5.60;;;9.40;61.80;;;;;;5116383;27;21324;-88
2022/11/26 05:42:50;;;;;;;14.20;6.40;;;9.40;63.10;;;;;;5082665;27;20545;-87
2022/11/26 05:45:17;;;;;;;12.33;7.90;;;9.30;62.60;;;;;;5085650;27;20499;-88
2022/11/26 05:47:44;;;;;;;19.63;10.60;;;9.30;62.90;;;;;;5103282;27;20439;-90
2022/11/26 05:50:14;;;;;;;25.03;11.40;;;9.10;62.80;;;;;;5085343;27;20477;-87
2022/11/26 05:52:42;;;;;;;14.40;9.17;;;9.10;63.50;;;;;;5064660;27;20822;-85
2022/11/26 05:55:10;;;;;;;15.03;10.50;;;9.30;62.60;;;;;;5091452;27;20466;-87
2022/11/26 05:57:37;;;;;;;17.37;10.83;;;9.30;61.50;;;;;;5106015;27;20462;-87
2022/11/26 06:00:06;;;;;;;25.17;10.40;;;9.40;60.90;;;;;;5092756;27;20526;-87
2022/11/26 06:02:38;;;;;;;15.20;9.30;;;9.40;60.70;;;;;;5116675;27;20450;-88
2022/11/26 06:05:06;;;;;;;15.00;10.83;;;9.40;60.40;;;;;;5100675;27;20446;-87
2022/11/26 06:07:35;;;;;;;14.97;10.07;;;9.30;60.20;;;;;;5086400;27;20478;-87
2022/11/26 06:10:03;;;;;;;14.50;10.20;;;9.20;60.10;;;;;;5104467;27;20462;-88
2022/11/26 06:12:30;;;;;;;13.30;9.70;;;9.10;60.20;;;;;;5088475;28;21015;-87
2022/11/26 06:14:57;;;;;;;16.93;8.40;;;9.10;60.60;;;;;;5087162;27;20434;-87
2022/11/26 06:17:25;;;;;;;15.40;8.20;;;9.00;61.50;;;;;;5091998;28;20482;-87
2022/11/26 06:19:52;;;;;;;12.43;8.37;;;9.10;61.10;;;;;;5073213;27;20498;-87
2022/11/26 06:22:19;;;;;;;16.40;7.30;;;9.10;60.50;;;;;;5076263;28;21187;-88
2022/11/26 06:24:48;;;;;;;13.37;8.60;;;8.80;61.50;;;;;;5084515;27;20443;-87
2022/11/26 06:27:15;;;;;;;10.00;7.57;;;8.60;63.00;;;;;;5072006;28;20567;-87
2022/11/26 06:29:42;;;;;;;13.07;7.83;;;8.60;62.60;;;;;;5097114;27;21020;-86
2022/11/26 06:32:09;;;;;;;32.70;8.93;;;8.80;61.80;;;;;;5101612;27;20458;-87
2022/11/26 06:34:36;;;;;;;88.43;13.27;;;8.50;62.20;;;;;;5098312;27;20446;-86
2022/11/26 06:37:03;;;;;;;17.20;10.20;;;8.50;62.40;;;;;;5072539;27;20519;-86
2022/11/26 06:39:30;;;;;;;62.07;13.00;;;8.60;62.30;;;;;;5102313;28;20462;-87
2022/11/26 06:41:59;;;;;;;28.63;10.30;;;8.70;61.20;;;;;;5090282;27;20448;-90
2022/11/26 06:44:26;;;;;;;10.33;8.73;;;8.80;60.80;;;;;;5071086;28;20516;-86
2022/11/26 06:46:53;;;;;;;13.13;9.20;;;8.80;61.10;;;;;;5089751;27;20458;-86
2022/11/26 06:49:20;;;;;;;12.37;8.73;;;8.80;60.40;;;;;;5092527;28;20560;-86
2022/11/26 06:51:47;;;;;;;14.43;9.37;;;8.80;60.30;;;;;;5078701;27;21109;-87
2022/11/26 06:54:14;;;;;;;12.90;9.63;;;8.90;59.90;;;;;;5112323;27;20954;-86
2022/11/26 06:56:41;;;;;;;27.83;9.07;;;8.80;59.80;;;;;;5074448;27;20446;-87
2022/11/26 06:59:10;;;;;;;19.97;9.30;;;8.90;59.80;;;;;;5110974;27;20577;-86
2022/11/26 07:01:37;;;;;;;57.03;12.93;;;8.90;59.70;;;;;;5070098;27;20511;-87
2022/11/26 07:04:04;;;;;;;88.67;16.07;;;8.90;59.70;;;;;;5093973;27;20446;-86
2022/11/26 07:06:33;;;;;;;30.23;13.10;;;8.90;60.40;;;;;;5118683;27;20477;-86
2022/11/26 07:09:04;;;;;;;32.20;11.37;;;8.50;62.60;;;;;;5118714;27;20453;-86
2022/11/26 07:11:31;;;;;;;47.00;13.70;;;8.30;64.50;;;;;;5099277;27;20505;-87
2022/11/26 07:14:00;;;;;;;65.63;14.30;;;8.20;64.30;;;;;;5108069;27;20473;-85
2022/11/26 07:16:29;;;;;;;35.47;14.10;;;8.10;65.40;;;;;;5098248;27;20446;-89
2022/11/26 07:18:58;;;;;;;39.33;13.63;;;8.20;65.00;;;;;;5118297;27;20799;-87
2022/11/26 07:21:26;;;;;;;55.37;15.47;;;8.50;64.50;;;;;;5100823;27;20945;-88
2022/11/26 07:23:54;;;;;;;49.47;16.87;;;8.40;64.90;;;;;;5100848;27;20710;-87
2022/11/26 07:26:23;;;;;;;160.40;19.33;;;8.40;64.80;;;;;;5117527;27;20505;-87
2022/11/26 07:28:50;;;;;;;50.13;15.43;;;8.10;65.30;;;;;;5116516;27;20470;-86
2022/11/26 07:31:20;;;;;;;50.70;14.10;;;8.00;66.50;;;;;;5122910;27;20474;-87
2022/11/26 07:33:48;;;;;;;48.80;13.93;;;8.20;66.30;;;;;;5119262;27;20512;-85
2022/11/26 07:36:17;;;;;;;63.63;12.80;;;8.40;65.60;;;;;;5113429;27;20467;-87
2022/11/26 07:38:45;;;;;;;38.87;12.07;;;8.50;64.80;;;;;;5094331;27;20467;-88
2022/11/26 07:41:15;;;;;;;151.53;16.90;;;8.30;64.60;;;;;;5113007;27;20453;-87
2022/11/26 07:43:43;;;;;;;44.30;12.37;;;8.30;65.20;;;;;;5086385;27;20512;-89
2022/11/26 07:46:13;;;;;;;170.40;19.00;;;8.50;64.60;;;;;;5109010;27;20473;-87
2022/11/26 07:48:55;;;;;;;49.67;12.80;;;8.60;64.60;;;;;;5096857;27;20467;-88
2022/11/26 07:51:24;;;;;;;70.33;13.17;;;8.70;63.30;;;;;;5097273;28;20491;-88
2022/11/26 07:53:51;;;;;;;37.50;12.47;;;8.90;63.20;;;;;;5084120;27;20496;-86
2022/11/26 07:56:19;;;;;;;66.97;17.80;;;8.90;63.20;;;;;;5106191;27;20439;-89
2022/11/26 07:58:54;;;;;;;61.60;20.03;;;8.80;63.20;;;;;;5092519;27;20482;-89
2022/11/26 08:01:28;;;;;;;48.30;18.30;;;8.70;63.80;;;;;;5089044;27;20447;-87
2022/11/26 08:03:58;;;;;;;35.53;18.83;;;8.90;63.60;;;;;;5079747;27;20454;-87
2022/11/26 08:06:28;;;;;;;56.10;18.40;;;9.00;63.00;;;;;;5086203;27;20446;-87
2022/11/26 08:08:56;;;;;;;31.00;15.50;;;9.00;62.20;;;;;;5067073;27;20472;-87
2022/11/26 08:11:29;;;;;;;66.60;17.80;;;9.00;62.20;;;;;;5089625;27;20851;-89
2022/11/26 08:17:19;;;;;;;32.20;15.90;;;8.90;62.40;;;;;;5104654;27;20434;-87
2022/11/26 08:19:48;;;;;;;49.80;18.10;;;8.80;62.30;;;;;;5074559;27;21105;-87
2022/11/26 08:22:16;;;;;;;66.60;20.53;;;8.70;62.20;;;;;;5080551;27;20445;-87
2022/11/26 08:24:43;;;;;;;30.47;16.30;;;8.50;63.90;;;;;;5078153;27;20455;-88
2022/11/26 08:27:11;;;;;;;42.93;20.80;;;8.60;64.20;;;;;;5110143;27;20567;-87
2022/11/26 08:29:39;;;;;;;38.90;19.77;;;8.70;63.80;;;;;;5079526;27;20458;-85
2022/11/26 08:32:06;;;;;;;32.10;17.40;;;8.90;63.70;;;;;;5081856;27;20524;-88
2022/11/26 08:34:34;;;;;;;36.17;16.83;;;9.10;63.20;;;;;;5077699;27;20439;-87
2022/11/26 08:37:03;;;;;;;28.20;16.83;;;9.20;62.70;;;;;;5109958;27;20485;-87
2022/11/26 08:39:30;;;;;;;37.53;15.20;;;9.20;62.50;;;;;;5079907;27;20461;-90
2022/11/26 08:41:58;;;;;;;40.03;15.37;;;9.10;62.80;;;;;;5085888;27;20438;-87
2022/11/26 08:44:25;;;;;;;45.83;16.60;;;9.00;63.20;;;;;;5094031;27;20948;-87
2022/11/26 08:46:54;;;;;;;56.27;15.13;;;8.90;63.60;;;;;;5078498;27;21045;-88
2022/11/26 08:49:21;;;;;;;43.23;12.97;;;8.60;64.30;;;;;;5080686;27;20569;-90
2022/11/26 08:51:49;;;;;;;23.53;13.13;;;8.20;65.50;;;;;;5104472;27;20478;-88
2022/11/26 08:54:19;;;;;;;63.93;17.40;;;8.40;65.60;;;;;;5086018;27;20438;-89
2022/11/26 08:56:49;;;;;;;36.93;18.20;;;8.70;65.10;;;;;;5081425;27;20448;-88
2022/11/26 08:59:19;;;;;;;58.63;18.90;;;8.70;64.80;;;;;;5096867;27;20499;-90
2022/11/26 09:01:48;;;;;;;57.30;18.90;;;8.90;64.60;;;;;;5086108;27;20465;-86
2022/11/26 09:04:16;;;;;;;54.57;15.47;;;8.90;64.70;;;;;;5092000;27;20450;-87
2022/11/26 09:06:44;;;;;;;43.13;16.80;;;8.80;64.50;;;;;;5078089;27;20455;-86
2022/11/26 09:09:16;;;;;;;43.87;18.60;;;8.90;64.80;;;;;;5081483;27;20992;-87
2022/11/26 09:11:52;;;;;;;63.97;15.80;;;9.00;64.30;;;;;;5089228;27;20490;-87
2022/11/26 09:14:24;;;;;;;51.37;15.23;;;9.10;64.30;;;;;;5121358;27;20531;-88
2022/11/26 09:16:52;;;;;;;67.70;18.90;;;9.00;63.80;;;;;;5080367;27;20550;-87
2022/11/26 09:19:20;;;;;;;99.40;20.50;;;8.90;64.50;;;;;;5118870;27;20474;-88
2022/11/26 09:21:47;;;;;;;53.17;21.37;;;8.90;64.80;;;;;;5091118;27;20423;-89
2022/11/26 09:24:16;;;;;;;99.20;23.87;;;9.00;64.90;;;;;;5107333;27;20439;-88
2022/11/26 09:26:44;;;;;;;63.80;19.00;;;9.10;63.60;;;;;;5087229;27;20565;-89
2022/11/26 09:29:15;;;;;;;47.13;18.13;;;9.20;64.50;;;;;;5092174;27;20475;-89
2022/11/26 09:31:43;;;;;;;42.40;20.03;;;9.10;64.30;;;;;;5104519;27;20549;-87
2022/11/26 09:34:11;;;;;;;42.70;16.40;;;9.20;64.50;;;;;;5102182;27;21156;-88
2022/11/26 09:36:38;;;;;;;30.53;17.17;;;9.20;64.30;;;;;;5092730;27;20443;-88
2022/11/26 09:39:06;;;;;;;119.60;22.63;;;8.70;65.30;;;;;;5102776;27;20465;-87
2022/11/26 09:41:44;;;;;;;53.23;17.57;;;8.50;66.60;;;;;;5104244;28;20449;-88
2022/11/26 09:44:25;;;;;;;68.00;18.87;;;8.70;66.90;;;;;;5091257;27;20453;-89
2022/11/26 09:47:05;;;;;;;70.57;21.97;;;8.70;65.90;;;;;;5089179;27;20446;-89
2022/11/26 09:49:37;;;;;;;54.37;17.77;;;8.60;66.50;;;;;;5089167;27;20475;-88
2022/11/26 09:52:07;;;;;;;60.27;18.97;;;8.70;66.40;;;;;;5087220;27;20500;-88
2022/11/26 09:54:37;;;;;;;103.03;19.07;;;8.50;66.40;;;;;;5104434;27;20451;-90
2022/11/26 09:57:18;;;;;;;84.23;19.73;;;8.70;67.00;;;;;;5090318;27;20446;-87
2022/11/26 09:59:49;;;;;;;50.83;18.90;;;8.80;66.80;;;;;;5074661;27;20481;-88
2022/11/26 10:02:16;;;;;;;64.53;18.00;;;8.80;66.70;;;;;;5084330;28;21233;-88
2022/11/26 10:04:44;;;;;;;261.77;30.63;;;9.00;66.50;;;;;;5087245;27;20492;-88
2022/11/26 10:07:33;;;;;;;273.43;30.57;;;9.20;65.80;;;;;;5076534;27;20871;-88
2022/11/26 10:10:08;;;;;;;62.70;25.80;;;9.40;65.20;;;;;;5081975;27;20469;-89
2022/11/26 10:12:48;;;;;;;56.83;21.10;;;9.50;64.50;;;;;;5084666;27;20446;-89
2022/11/26 10:15:20;;;;;;;89.50;19.00;;;9.50;64.30;;;;;;5090037;27;20438;-88
2022/11/26 10:17:57;;;;;;;122.03;22.47;;;9.50;64.30;;;;;;5088320;27;20434;-88
2022/11/26 10:20:53;;;;;;;34.77;16.53;;;9.30;65.00;;;;;;5099469;28;20841;-89
2022/11/26 10:23:27;;;;;;;27.60;17.37;;;9.60;65.30;;;;;;5073072;28;21355;-88
2022/11/26 10:26:01;;;;;;;51.00;19.40;;;9.90;65.00;;;;;;5091325;27;20458;-88
2022/11/26 10:28:33;;;;;;;63.70;18.37;;;10.10;63.30;;;;;;5088184;28;20469;-88
2022/11/26 10:31:03;;;;;;;115.63;20.00;;;10.10;63.00;;;;;;5084541;27;20553;-88
2022/11/26 10:33:35;;;;;;;53.67;17.57;;;9.80;64.60;;;;;;5084888;28;20451;-88
2022/11/26 10:36:03;;;;;;;63.13;18.00;;;9.60;65.40;;;;;;5088858;27;20458;-90
2022/11/26 10:38:31;;;;;;;34.13;16.73;;;9.60;65.30;;;;;;5090856;28;21093;-89
2022/11/26 10:40:58;;;;;;;59.60;26.97;;;9.80;65.70;;;;;;5071916;27;20568;-88
2022/11/26 10:43:25;;;;;;;52.40;27.43;;;9.80;65.20;;;;;;5068276;28;20451;-88
2022/11/26 10:45:54;;;;;;;40.37;21.10;;;9.50;67.80;;;;;;5107290;27;20454;-91
2022/11/26 10:48:25;;;;;;;32.33;19.67;;;9.40;68.70;;;;;;5073891;27;20490;-88
2022/11/26 10:51:02;;;;;;;39.43;18.83;;;9.60;67.70;;;;;;5079739;27;20449;-87
2022/11/26 10:53:31;;;;;;;49.47;26.90;;;9.80;66.90;;;;;;5093138;27;21096;-90
2022/11/26 10:56:00;;;;;;;32.70;20.70;;;9.80;66.80;;;;;;5106177;27;20449;-89
2022/11/26 10:58:31;;;;;;;35.77;18.90;;;10.10;65.50;;;;;;5077243;28;20493;-88
2022/11/26 11:01:02;;;;;;;31.83;19.63;;;10.40;64.70;;;;;;5095936;27;21135;-89
2022/11/26 11:03:34;;;;;;;40.77;25.17;;;10.40;64.50;;;;;;5079062;27;20996;-90
2022/11/26 11:06:34;;;;;;;36.07;23.43;;;10.40;64.10;;;;;;5088663;27;20450;-87
2022/11/26 11:09:23;;;;;;;35.33;22.93;;;10.30;64.00;;;;;;5080465;27;20948;-88
2022/11/26 11:12:14;;;;;;;35.60;21.93;;;10.30;64.60;;;;;;5094938;27;20541;-88
2022/11/26 11:14:42;;;;;;;33.83;20.00;;;10.50;64.70;;;;;;5081666;27;20445;-88
2022/11/26 11:17:30;;;;;;;28.63;17.87;;;10.40;64.90;;;;;;5089026;27;20446;-88
2022/11/26 11:20:03;;;;;;;21.80;14.57;;;10.40;65.40;;;;;;5102681;27;20480;-88
2022/11/26 11:22:30;;;;;;;26.80;16.57;;;10.70;64.80;;;;;;5079479;27;20857;-88
2022/11/26 11:24:59;;;;;;;25.53;16.50;;;10.90;64.00;;;;;;5096956;27;20514;-90
2022/11/26 11:27:31;;;;;;;31.97;17.33;;;11.00;63.80;;;;;;5075193;27;20506;-88
2022/11/26 11:30:00;;;;;;;37.80;22.30;;;10.60;64.90;;;;;;5077679;27;20462;-88
2022/11/26 11:32:34;;;;;;;26.47;16.63;;;10.60;65.70;;;;;;5072480;27;20815;-87
2022/11/26 11:35:23;;;;;;;16.50;11.20;;;11.00;65.10;;;;;;5089810;27;20469;-88
2022/11/26 11:37:52;;;;;;;14.70;10.93;;;11.00;64.50;;;;;;5073054;27;20469;-88
2022/11/26 11:40:24;;;;;;;15.93;11.00;;;11.10;64.50;;;;;;5077919;27;20458;-88
2022/11/26 11:42:57;;;;;;;16.10;10.87;;;11.20;64.60;;;;;;5111124;27;20516;-88
2022/11/26 11:45:38;;;;;;;16.17;10.63;;;11.50;64.50;;;;;;5065007;27;20452;-88
2022/11/26 11:48:16;;;;;;;12.83;9.50;;;11.60;64.10;;;;;;5092765;27;20449;-87
2022/11/26 11:50:54;;;;;;;15.60;9.60;;;11.50;64.00;;;;;;5084206;27;21064;-89
2022/11/26 11:53:34;;;;;;;13.37;9.03;;;11.50;65.10;;;;;;5103349;27;20451;-88
2022/11/26 11:56:22;;;;;;;15.60;10.40;;;11.70;64.60;;;;;;5086644;27;20457;-89
2022/11/26 11:59:04;;;;;;;13.90;6.93;;;11.90;64.40;;;;;;5093310;27;20470;-90
2022/11/26 12:01:53;;;;;;;14.17;7.63;;;12.20;64.30;;;;;;5085200;27;20455;-90
2022/11/26 12:04:41;;;;;;;12.73;8.30;;;12.30;64.00;;;;;;5087727;27;20496;-88
2022/11/26 12:07:31;;;;;;;15.87;6.77;;;12.70;63.70;;;;;;5087331;27;20459;-88
2022/11/26 12:10:12;;;;;;;9.33;7.87;;;12.90;63.30;;;;;;5085844;27;21056;-88
2022/11/26 12:12:44;;;;;;;16.63;8.40;;;13.20;61.90;;;;;;5092815;27;20790;-87
2022/11/26 12:15:21;;;;;;;15.23;5.63;;;13.50;61.90;;;;;;5077439;27;20449;-89
2022/11/26 12:17:54;;;;;;;10.43;6.00;;;13.70;60.30;;;;;;5088016;27;20454;-88
2022/11/26 12:20:27;;;;;;;9.83;6.00;;;13.90;60.60;;;;;;5101140;27;20560;-88
2022/11/26 12:23:04;;;;;;;15.57;7.73;;;14.00;59.70;;;;;;5078847;27;20458;-89
2022/11/26 12:25:33;;;;;;;16.77;7.67;;;13.90;58.80;;;;;;5106318;27;20446;-89
2022/11/26 12:28:06;;;;;;;12.70;6.30;;;14.00;59.10;;;;;;5090378;27;20442;-89
2022/11/26 12:30:44;;;;;;;15.90;5.13;;;14.10;58.50;;;;;;5100879;27;20470;-89
2022/11/26 12:33:16;;;;;;;11.27;5.00;;;14.10;58.10;;;;;;5102912;27;20457;-89
2022/11/26 12:35:50;;;;;;;14.40;6.60;;;14.00;58.30;;;;;;5074081;27;20446;-88
2022/11/26 12:38:23;;;;;;;14.27;5.20;;;14.10;58.20;;;;;;5090594;27;20537;-88
2022/11/26 12:40:56;;;;;;;12.57;7.10;;;14.30;58.10;;;;;;5087172;27;20549;-89
2022/11/26 12:43:32;;;;;;;10.50;6.70;;;14.40;57.60;;;;;;5077285;27;20531;-89
2022/11/26 12:46:02;;;;;;;11.60;7.23;;;14.70;57.70;;;;;;5076060;27;20449;-89
2022/11/26 12:48:43;;;;;;;13.50;7.70;;;14.90;57.40;;;;;;5103121;27;20434;-89
2022/11/26 12:51:26;;;;;;;18.37;9.80;;;15.10;57.30;;;;;;5101816;27;20451;-89
2022/11/26 12:54:04;;;;;;;16.73;8.13;;;15.20;57.50;;;;;;5081792;27;21041;-90
2022/11/26 12:56:35;;;;;;;11.00;7.20;;;15.10;56.80;;;;;;5084968;27;20441;-90
2022/11/26 12:59:10;;;;;;;9.90;6.30;;;15.00;56.80;;;;;;5071990;27;20554;-89